sensor_id;sensor_type;location;lat;lon;timestamp;pressure;altitude;pressure_sealevel;temperature;humidity
44131;BME280;29792;48.726;9.248;2023-09-12T00:00:36;96586.78;;;22.00;77.99
44131;BME280;29792;48.726;9.248;2023-09-12T00:03:01;96587.97;;;21.98;77.76
44131;BME280;29792;48.726;9.248;2023-09-12T00:05:26;96588.38;;;21.95;78.47
44131;BME280;29792;48.726;9.248;2023-09-12T00:07:52;96586.97;;;21.92;78.56
44131;BME280;29792;48.726;9.248;2023-09-12T00:10:19;96593.63;;;21.88;78.73
44131;BME280;29792;48.726;9.248;2023-09-12T00:12:44;96583.97;;;21.82;78.70
44131;BME280;29792;48.726;9.248;2023-09-12T00:15:09;96576.97;;;21.76;79.30
44131;BME280;29792;48.726;9.248;2023-09-12T00:17:34;96575.78;;;21.72;79.48
44131;BME280;29792;48.726;9.248;2023-09-12T00:20:00;96574.56;;;21.68;79.81
44131;BME280;29792;48.726;9.248;2023-09-12T00:22:25;96566.38;;;21.64;79.97
44131;BME280;29792;48.726;9.248;2023-09-12T00:24:50;96567.97;;;21.59;79.94
44131;BME280;29792;48.726;9.248;2023-09-12T00:27:15;96569.59;;;21.53;80.54
44131;BME280;29792;48.726;9.248;2023-09-12T00:29:41;96566.00;;;21.48;80.70
44131;BME280;29792;48.726;9.248;2023-09-12T00:32:06;96563.16;;;21.43;81.47
44131;BME280;29792;48.726;9.248;2023-09-12T00:34:31;96557.78;;;21.38;81.55
44131;BME280;29792;48.726;9.248;2023-09-12T00:36:56;96569.59;;;21.33;81.57
44131;BME280;29792;48.726;9.248;2023-09-12T00:39:22;96564.19;;;21.28;81.67
44131;BME280;29792;48.726;9.248;2023-09-12T00:41:47;96574.41;;;21.23;81.80
44131;BME280;29792;48.726;9.248;2023-09-12T00:44:12;96573.41;;;21.18;82.21
44131;BME280;29792;48.726;9.248;2023-09-12T00:46:38;96567.16;;;21.12;82.40
44131;BME280;29792;48.726;9.248;2023-09-12T00:49:04;96572.97;;;21.08;82.89
44131;BME280;29792;48.726;9.248;2023-09-12T00:51:31;96562.34;;;21.03;83.15
44131;BME280;29792;48.726;9.248;2023-09-12T00:53:57;96568.16;;;20.98;83.22
44131;BME280;29792;48.726;9.248;2023-09-12T00:56:22;96566.13;;;20.93;83.08
44131;BME280;29792;48.726;9.248;2023-09-12T00:58:48;96574.34;;;20.90;83.15
44131;BME280;29792;48.726;9.248;2023-09-12T01:01:17;96568.72;;;20.87;83.52
44131;BME280;29792;48.726;9.248;2023-09-12T01:03:42;96559.50;;;20.84;84.22
44131;BME280;29792;48.726;9.248;2023-09-12T01:06:08;96558.69;;;20.84;84.45
44131;BME280;29792;48.726;9.248;2023-09-12T01:08:35;96556.31;;;20.82;84.53
44131;BME280;29792;48.726;9.248;2023-09-12T01:11:02;96547.91;;;20.80;84.97
44131;BME280;29792;48.726;9.248;2023-09-12T01:13:27;96556.09;;;20.77;84.97
44131;BME280;29792;48.726;9.248;2023-09-12T01:15:53;96561.47;;;20.76;85.07
44131;BME280;29792;48.726;9.248;2023-09-12T01:18:18;96550.31;;;20.75;85.47
44131;BME280;29792;48.726;9.248;2023-09-12T01:21:00;96548.88;;;20.73;85.28
44131;BME280;29792;48.726;9.248;2023-09-12T01:23:39;96546.28;;;20.73;85.43
44131;BME280;29792;48.726;9.248;2023-09-12T01:29:12;96561.91;;;20.73;85.20
44131;BME280;29792;48.726;9.248;2023-09-12T01:31:38;96564.09;;;20.69;85.21
44131;BME280;29792;48.726;9.248;2023-09-12T01:34:11;96564.28;;;20.68;85.40
44131;BME280;29792;48.726;9.248;2023-09-12T01:36:37;96562.09;;;20.65;85.34
44131;BME280;29792;48.726;9.248;2023-09-12T01:39:02;96565.25;;;20.60;85.46
44131;BME280;29792;48.726;9.248;2023-09-12T01:41:30;96565.06;;;20.55;85.59
44131;BME280;29792;48.726;9.248;2023-09-12T01:43:57;96563.84;;;20.51;85.76
44131;BME280;29792;48.726;9.248;2023-09-12T01:46:26;96557.44;;;20.47;86.05
44131;BME280;29792;48.726;9.248;2023-09-12T01:48:53;96560.63;;;20.42;85.87
44131;BME280;29792;48.726;9.248;2023-09-12T01:51:21;96558.78;;;20.36;86.13
44131;BME280;29792;48.726;9.248;2023-09-12T01:53:47;96563.94;;;20.30;86.04
44131;BME280;29792;48.726;9.248;2023-09-12T01:56:14;96567.13;;;20.25;86.57
44131;BME280;29792;48.726;9.248;2023-09-12T01:58:40;96566.09;;;20.19;86.86
44131;BME280;29792;48.726;9.248;2023-09-12T02:01:05;96562.28;;;20.15;86.88
44131;BME280;29792;48.726;9.248;2023-09-12T02:03:30;96561.84;;;20.12;87.09
44131;BME280;29792;48.726;9.248;2023-09-12T02:05:55;96562.25;;;20.09;87.07
44131;BME280;29792;48.726;9.248;2023-09-12T02:08:22;96562.03;;;20.04;86.92
44131;BME280;29792;48.726;9.248;2023-09-12T02:10:47;96563.41;;;20.00;86.80
44131;BME280;29792;48.726;9.248;2023-09-12T02:13:12;96560.38;;;19.96;87.62
44131;BME280;29792;48.726;9.248;2023-09-12T02:15:37;96561.59;;;19.94;87.99
44131;BME280;29792;48.726;9.248;2023-09-12T02:18:03;96560.78;;;19.93;88.30
44131;BME280;29792;48.726;9.248;2023-09-12T02:20:28;96563.56;;;19.92;88.77
44131;BME280;29792;48.726;9.248;2023-09-12T02:22:53;96561.78;;;19.92;88.65
44131;BME280;29792;48.726;9.248;2023-09-12T02:25:19;96563.56;;;19.92;89.04
44131;BME280;29792;48.726;9.248;2023-09-12T02:27:44;96555.16;;;19.90;88.94
44131;BME280;29792;48.726;9.248;2023-09-12T02:30:10;96558.75;;;19.89;89.07
44131;BME280;29792;48.726;9.248;2023-09-12T02:32:35;96552.16;;;19.86;89.36
44131;BME280;29792;48.726;9.248;2023-09-12T02:35:00;96553.16;;;19.85;89.10
44131;BME280;29792;48.726;9.248;2023-09-12T02:37:25;96552.34;;;19.85;89.04
44131;BME280;29792;48.726;9.248;2023-09-12T02:39:51;96549.94;;;19.83;88.96
44131;BME280;29792;48.726;9.248;2023-09-12T02:42:16;96545.91;;;19.80;89.20
44131;BME280;29792;48.726;9.248;2023-09-12T02:44:41;96544.28;;;19.79;89.11
44131;BME280;29792;48.726;9.248;2023-09-12T02:47:06;96538.28;;;19.79;88.75
44131;BME280;29792;48.726;9.248;2023-09-12T02:49:32;96537.69;;;19.77;89.07
44131;BME280;29792;48.726;9.248;2023-09-12T02:51:57;96537.25;;;19.73;88.80
44131;BME280;29792;48.726;9.248;2023-09-12T02:54:22;96534.44;;;19.68;88.83
44131;BME280;29792;48.726;9.248;2023-09-12T02:56:47;96530.44;;;19.66;88.80
44131;BME280;29792;48.726;9.248;2023-09-12T02:59:13;96533.41;;;19.63;88.90
44131;BME280;29792;48.726;9.248;2023-09-12T03:01:38;96532.81;;;19.61;88.94
44131;BME280;29792;48.726;9.248;2023-09-12T03:04:03;96536.59;;;19.58;88.92
44131;BME280;29792;48.726;9.248;2023-09-12T03:06:29;96538.75;;;19.55;89.29
44131;BME280;29792;48.726;9.248;2023-09-12T03:08:55;96544.34;;;19.52;89.09
44131;BME280;29792;48.726;9.248;2023-09-12T03:11:20;96534.50;;;19.47;88.96
44131;BME280;29792;48.726;9.248;2023-09-12T03:13:45;96534.69;;;19.46;88.75
44131;BME280;29792;48.726;9.248;2023-09-12T03:16:12;96532.63;;;19.41;89.53
44131;BME280;29792;48.726;9.248;2023-09-12T03:18:37;96530.41;;;19.38;89.31
44131;BME280;29792;48.726;9.248;2023-09-12T03:21:03;96537.16;;;19.32;89.21
44131;BME280;29792;48.726;9.248;2023-09-12T03:23:28;96531.94;;;19.26;89.11
44131;BME280;29792;48.726;9.248;2023-09-12T03:25:54;96536.69;;;19.22;89.87
44131;BME280;29792;48.726;9.248;2023-09-12T03:28:19;96527.88;;;19.17;89.81
44131;BME280;29792;48.726;9.248;2023-09-12T03:30:44;96537.63;;;19.15;90.21
44131;BME280;29792;48.726;9.248;2023-09-12T03:33:10;96532.84;;;19.12;90.31
44131;BME280;29792;48.726;9.248;2023-09-12T03:35:36;96522.81;;;19.09;90.61
44131;BME280;29792;48.726;9.248;2023-09-12T03:38:01;96526.41;;;19.08;90.90
44131;BME280;29792;48.726;9.248;2023-09-12T03:40:30;96529.00;;;19.08;91.07
44131;BME280;29792;48.726;9.248;2023-09-12T03:42:56;96522.41;;;19.05;91.23
44131;BME280;29792;48.726;9.248;2023-09-12T03:45:22;96520.97;;;19.02;91.27
44131;BME280;29792;48.726;9.248;2023-09-12T03:47:47;96526.34;;;19.01;91.55
44131;BME280;29792;48.726;9.248;2023-09-12T03:50:13;96526.53;;;18.99;91.86
44131;BME280;29792;48.726;9.248;2023-09-12T03:52:39;96522.31;;;18.98;91.77
44131;BME280;29792;48.726;9.248;2023-09-12T03:55:04;96519.72;;;18.98;92.23
44131;BME280;29792;48.726;9.248;2023-09-12T03:57:30;96521.50;;;18.98;92.10
44131;BME280;29792;48.726;9.248;2023-09-12T03:59:55;96518.91;;;18.98;92.05
44131;BME280;29792;48.726;9.248;2023-09-12T04:02:20;96523.53;;;18.96;92.12
44131;BME280;29792;48.726;9.248;2023-09-12T04:04:45;96526.28;;;18.94;91.78
44131;BME280;29792;48.726;9.248;2023-09-12T04:07:11;96530.88;;;18.92;92.19
44131;BME280;29792;48.726;9.248;2023-09-12T04:09:36;96526.84;;;18.90;92.10
44131;BME280;29792;48.726;9.248;2023-09-12T04:12:01;96519.63;;;18.85;92.01
44131;BME280;29792;48.726;9.248;2023-09-12T04:14:27;96529.38;;;18.83;92.57
44131;BME280;29792;48.726;9.248;2023-09-12T04:16:52;96522.78;;;18.81;92.13
44131;BME280;29792;48.726;9.248;2023-09-12T04:19:17;96529.94;;;18.79;92.17
44131;BME280;29792;48.726;9.248;2023-09-12T04:21:43;96528.34;;;18.78;92.45
44131;BME280;29792;48.726;9.248;2023-09-12T04:24:08;96527.91;;;18.74;92.39
44131;BME280;29792;48.726;9.248;2023-09-12T04:26:34;96529.09;;;18.72;92.63
44131;BME280;29792;48.726;9.248;2023-09-12T04:28:59;96532.50;;;18.72;92.92
44131;BME280;29792;48.726;9.248;2023-09-12T04:31:24;96534.63;;;18.68;92.34
44131;BME280;29792;48.726;9.248;2023-09-12T04:33:53;96530.59;;;18.66;92.91
44131;BME280;29792;48.726;9.248;2023-09-12T04:36:19;96523.56;;;18.60;93.16
44131;BME280;29792;48.726;9.248;2023-09-12T04:38:45;96519.38;;;18.59;93.41
44131;BME280;29792;48.726;9.248;2023-09-12T04:41:12;96518.56;;;18.58;93.55
44131;BME280;29792;48.726;9.248;2023-09-12T04:43:40;96516.31;;;18.55;93.39
44131;BME280;29792;48.726;9.248;2023-09-12T04:46:05;96515.53;;;18.55;93.43
44131;BME280;29792;48.726;9.248;2023-09-12T04:48:31;96516.88;;;18.51;93.40
44131;BME280;29792;48.726;9.248;2023-09-12T04:50:56;96518.84;;;18.49;94.02
44131;BME280;29792;48.726;9.248;2023-09-12T04:53:22;96518.22;;;18.47;93.44
44131;BME280;29792;48.726;9.248;2023-09-12T04:55:47;96513.03;;;18.47;93.69
44131;BME280;29792;48.726;9.248;2023-09-12T04:58:12;96517.59;;;18.45;93.67
44131;BME280;29792;48.726;9.248;2023-09-12T05:00:39;96509.19;;;18.43;94.00
44131;BME280;29792;48.726;9.248;2023-09-12T05:03:04;96524.75;;;18.43;94.07
44131;BME280;29792;48.726;9.248;2023-09-12T05:05:29;96524.94;;;18.41;94.09
44131;BME280;29792;48.726;9.248;2023-09-12T05:07:55;96523.34;;;18.40;94.93
44131;BME280;29792;48.726;9.248;2023-09-12T05:10:20;96520.94;;;18.39;94.31
44131;BME280;29792;48.726;9.248;2023-09-12T05:12:45;96513.16;;;18.39;94.75
44131;BME280;29792;48.726;9.248;2023-09-12T05:15:11;96516.75;;;18.38;94.96
44131;BME280;29792;48.726;9.248;2023-09-12T05:17:36;96525.50;;;18.37;94.75
44131;BME280;29792;48.726;9.248;2023-09-12T05:20:02;96521.28;;;18.36;94.87
44131;BME280;29792;48.726;9.248;2023-09-12T05:22:28;96522.28;;;18.35;94.92
44131;BME280;29792;48.726;9.248;2023-09-12T05:24:54;96523.25;;;18.34;94.97
44131;BME280;29792;48.726;9.248;2023-09-12T05:27:19;96526.66;;;18.34;95.11
44131;BME280;29792;48.726;9.248;2023-09-12T05:29:44;96521.47;;;18.34;95.11
44131;BME280;29792;48.726;9.248;2023-09-12T05:32:09;96520.50;;;18.35;95.43
44131;BME280;29792;48.726;9.248;2023-09-12T05:34:35;96533.47;;;18.35;95.65
44131;BME280;29792;48.726;9.248;2023-09-12T05:37:00;96528.91;;;18.37;96.48
44131;BME280;29792;48.726;9.248;2023-09-12T05:39:25;96532.94;;;18.40;96.46
44131;BME280;29792;48.726;9.248;2023-09-12T05:41:50;96528.72;;;18.39;96.40
44131;BME280;29792;48.726;9.248;2023-09-12T05:44:16;96527.53;;;18.41;96.67
44131;BME280;29792;48.726;9.248;2023-09-12T05:46:47;96530.75;;;18.43;96.33
44131;BME280;29792;48.726;9.248;2023-09-12T05:49:15;96538.97;;;18.47;96.88
44131;BME280;29792;48.726;9.248;2023-09-12T05:51:41;96537.00;;;18.49;97.51
44131;BME280;29792;48.726;9.248;2023-09-12T05:54:07;96533.84;;;18.53;97.86
44131;BME280;29792;48.726;9.248;2023-09-12T05:56:33;96537.25;;;18.54;97.72
44131;BME280;29792;48.726;9.248;2023-09-12T05:58:58;96538.25;;;18.53;98.22
44131;BME280;29792;48.726;9.248;2023-09-12T06:01:24;96543.44;;;18.53;98.46
44131;BME280;29792;48.726;9.248;2023-09-12T06:03:49;96536.28;;;18.55;98.98
44131;BME280;29792;48.726;9.248;2023-09-12T06:06:14;96540.94;;;18.59;99.08
44131;BME280;29792;48.726;9.248;2023-09-12T06:08:39;96556.16;;;18.62;99.43
44131;BME280;29792;48.726;9.248;2023-09-12T06:11:05;96555.75;;;18.65;99.99
44131;BME280;29792;48.726;9.248;2023-09-12T06:13:30;96554.81;;;18.73;99.80
44131;BME280;29792;48.726;9.248;2023-09-12T06:15:57;96551.06;;;18.76;100.00
44131;BME280;29792;48.726;9.248;2023-09-12T06:18:23;96554.47;;;18.76;100.00
44131;BME280;29792;48.726;9.248;2023-09-12T06:20:49;96547.31;;;18.78;100.00
44131;BME280;29792;48.726;9.248;2023-09-12T06:23:14;96549.34;;;18.83;100.00
44131;BME280;29792;48.726;9.248;2023-09-12T06:25:39;96546.78;;;18.89;100.00
44131;BME280;29792;48.726;9.248;2023-09-12T06:28:09;96553.69;;;18.97;100.00
44131;BME280;29792;48.726;9.248;2023-09-12T06:30:35;96552.31;;;19.01;100.00
44131;BME280;29792;48.726;9.248;2023-09-12T06:33:00;96550.97;;;19.05;100.00
44131;BME280;29792;48.726;9.248;2023-09-12T06:35:26;96552.97;;;19.10;100.00
44131;BME280;29792;48.726;9.248;2023-09-12T06:37:51;96550.81;;;19.13;100.00
44131;BME280;29792;48.726;9.248;2023-09-12T06:40:16;96555.63;;;19.16;100.00
44131;BME280;29792;48.726;9.248;2023-09-12T06:42:42;96562.25;;;19.19;100.00
44131;BME280;29792;48.726;9.248;2023-09-12T06:45:08;96560.06;;;19.22;100.00
44131;BME280;29792;48.726;9.248;2023-09-12T06:47:33;96557.72;;;19.27;100.00
44131;BME280;29792;48.726;9.248;2023-09-12T06:49:58;96561.72;;;19.30;100.00
44131;BME280;29792;48.726;9.248;2023-09-12T06:52:23;96561.78;;;19.36;100.00
44131;BME280;29792;48.726;9.248;2023-09-12T06:54:49;96560.03;;;19.43;100.00
44131;BME280;29792;48.726;9.248;2023-09-12T06:57:14;96564.69;;;19.48;100.00
44131;BME280;29792;48.726;9.248;2023-09-12T06:59:39;96563.34;;;19.52;100.00
44131;BME280;29792;48.726;9.248;2023-09-12T07:02:05;96569.75;;;19.56;100.00
44131;BME280;29792;48.726;9.248;2023-09-12T07:04:30;96574.19;;;19.62;100.00
44131;BME280;29792;48.726;9.248;2023-09-12T07:06:55;96577.22;;;19.66;100.00
44131;BME280;29792;48.726;9.248;2023-09-12T07:09:20;96579.66;;;19.74;100.00
44131;BME280;29792;48.726;9.248;2023-09-12T07:11:46;96585.69;;;19.81;100.00
44131;BME280;29792;48.726;9.248;2023-09-12T07:14:11;96582.75;;;19.91;100.00
44131;BME280;29792;48.726;9.248;2023-09-12T07:16:37;96585.22;;;19.99;100.00
44131;BME280;29792;48.726;9.248;2023-09-12T07:19:02;96582.44;;;20.07;100.00
44131;BME280;29792;48.726;9.248;2023-09-12T07:21:28;96591.88;;;20.14;100.00
44131;BME280;29792;48.726;9.248;2023-09-12T07:23:54;96596.94;;;20.23;100.00
44131;BME280;29792;48.726;9.248;2023-09-12T07:26:20;96594.16;;;20.31;100.00
44131;BME280;29792;48.726;9.248;2023-09-12T07:28:45;96593.03;;;20.40;100.00
44131;BME280;29792;48.726;9.248;2023-09-12T07:31:10;96598.06;;;20.48;100.00
44131;BME280;29792;48.726;9.248;2023-09-12T07:33:36;96592.69;;;20.56;100.00
44131;BME280;29792;48.726;9.248;2023-09-12T07:36:01;96599.94;;;20.67;100.00
44131;BME280;29792;48.726;9.248;2023-09-12T07:38:28;96605.97;;;20.81;100.00
44131;BME280;29792;48.726;9.248;2023-09-12T07:40:54;96612.81;;;20.95;100.00
44131;BME280;29792;48.726;9.248;2023-09-12T07:43:20;96613.84;;;21.07;100.00
44131;BME280;29792;48.726;9.248;2023-09-12T07:45:46;96606.47;;;21.17;100.00
44131;BME280;29792;48.726;9.248;2023-09-12T07:48:11;96611.69;;;21.30;100.00
44131;BME280;29792;48.726;9.248;2023-09-12T07:50:36;96615.72;;;21.40;100.00
44131;BME280;29792;48.726;9.248;2023-09-12T07:53:04;96616.09;;;21.50;99.94
44131;BME280;29792;48.726;9.248;2023-09-12T07:55:29;96613.91;;;21.60;99.92
44131;BME280;29792;48.726;9.248;2023-09-12T07:57:59;96613.28;;;21.71;99.86
44131;BME280;29792;48.726;9.248;2023-09-12T08:00:24;96615.28;;;21.82;100.00
44131;BME280;29792;48.726;9.248;2023-09-12T08:02:50;96621.69;;;21.93;100.00
44131;BME280;29792;48.726;9.248;2023-09-12T08:05:15;96616.28;;;22.01;99.94
44131;BME280;29792;48.726;9.248;2023-09-12T08:07:40;96617.25;;;22.06;99.45
44131;BME280;29792;48.726;9.248;2023-09-12T08:10:06;96613.63;;;22.14;99.33
44131;BME280;29792;48.726;9.248;2023-09-12T08:12:31;96614.44;;;22.21;99.07
44131;BME280;29792;48.726;9.248;2023-09-12T08:14:56;96611.59;;;22.29;98.85
44131;BME280;29792;48.726;9.248;2023-09-12T08:17:23;96613.75;;;22.39;99.10
44131;BME280;29792;48.726;9.248;2023-09-12T08:19:48;96606.69;;;22.53;99.01
44131;BME280;29792;48.726;9.248;2023-09-12T08:22:13;96609.81;;;22.68;99.21
44131;BME280;29792;48.726;9.248;2023-09-12T08:24:39;96614.41;;;22.79;98.16
44131;BME280;29792;48.726;9.248;2023-09-12T08:27:05;96613.34;;;22.87;96.75
44131;BME280;29792;48.726;9.248;2023-09-12T08:29:31;96612.94;;;22.90;95.05
44131;BME280;29792;48.726;9.248;2023-09-12T08:31:57;96610.34;;;22.90;94.30
44131;BME280;29792;48.726;9.248;2023-09-12T08:34:22;96613.94;;;22.89;92.81
44131;BME280;29792;48.726;9.248;2023-09-12T08:36:47;96612.78;;;22.85;92.12
44131;BME280;29792;48.726;9.248;2023-09-12T08:39:15;96611.38;;;22.82;90.65
44131;BME280;29792;48.726;9.248;2023-09-12T08:41:41;96614.81;;;22.82;90.63
44131;BME280;29792;48.726;9.248;2023-09-12T08:44:06;96613.94;;;22.89;90.69
44131;BME280;29792;48.726;9.248;2023-09-12T08:46:32;96618.53;;;23.00;90.89
44131;BME280;29792;48.726;9.248;2023-09-12T08:48:58;96622.66;;;23.14;90.65
44131;BME280;29792;48.726;9.248;2023-09-12T08:51:23;96613.50;;;23.30;90.44
44131;BME280;29792;48.726;9.248;2023-09-12T08:53:50;96616.16;;;23.48;89.37
44131;BME280;29792;48.726;9.248;2023-09-12T08:56:15;96619.69;;;23.67;89.09
44131;BME280;29792;48.726;9.248;2023-09-12T08:58:41;96622.75;;;23.82;88.79
44131;BME280;29792;48.726;9.248;2023-09-12T09:01:07;96619.59;;;23.98;88.35
44131;BME280;29792;48.726;9.248;2023-09-12T09:03:35;96618.22;;;24.14;87.39
44131;BME280;29792;48.726;9.248;2023-09-12T09:06:01;96609.44;;;24.26;86.25
44131;BME280;29792;48.726;9.248;2023-09-12T09:08:28;96612.94;;;24.39;85.67
44131;BME280;29792;48.726;9.248;2023-09-12T09:10:58;96601.47;;;24.51;84.71
44131;BME280;29792;48.726;9.248;2023-09-12T09:13:24;96598.47;;;24.66;84.22
44131;BME280;29792;48.726;9.248;2023-09-12T09:16:09;96597.63;;;24.84;84.17
44131;BME280;29792;48.726;9.248;2023-09-12T09:18:56;96599.22;;;25.03;83.06
44131;BME280;29792;48.726;9.248;2023-09-12T09:21:24;96602.34;;;25.23;83.30
44131;BME280;29792;48.726;9.248;2023-09-12T09:23:51;96599.53;;;25.36;82.40
44131;BME280;29792;48.726;9.248;2023-09-12T09:26:16;96602.03;;;25.55;82.85
44131;BME280;29792;48.726;9.248;2023-09-12T09:28:41;96602.44;;;25.70;81.99
44131;BME280;29792;48.726;9.248;2023-09-12T09:31:11;96604.13;;;25.88;82.03
44131;BME280;29792;48.726;9.248;2023-09-12T09:33:37;96595.44;;;25.99;80.75
44131;BME280;29792;48.726;9.248;2023-09-12T09:36:05;96587.78;;;26.09;78.79
44131;BME280;29792;48.726;9.248;2023-09-12T09:38:31;96588.56;;;26.21;80.05
44131;BME280;29792;48.726;9.248;2023-09-12T09:40:56;96583.09;;;26.34;79.22
44131;BME280;29792;48.726;9.248;2023-09-12T09:43:22;96582.72;;;26.42;77.52
44131;BME280;29792;48.726;9.248;2023-09-12T09:45:50;96584.19;;;26.50;77.85
44131;BME280;29792;48.726;9.248;2023-09-12T09:48:23;96588.94;;;26.65;77.44
44131;BME280;29792;48.726;9.248;2023-09-12T09:50:49;96590.22;;;26.79;77.50
44131;BME280;29792;48.726;9.248;2023-09-12T09:53:15;96586.75;;;26.90;76.09
44131;BME280;29792;48.726;9.248;2023-09-12T09:55:40;96580.13;;;26.99;76.01
44131;BME280;29792;48.726;9.248;2023-09-12T09:58:07;96578.28;;;27.16;76.54
44131;BME280;29792;48.726;9.248;2023-09-12T10:00:37;96579.25;;;27.27;76.28
44131;BME280;29792;48.726;9.248;2023-09-12T10:03:05;96580.22;;;27.38;74.35
44131;BME280;29792;48.726;9.248;2023-09-12T10:05:32;96568.72;;;27.44;73.76
44131;BME280;29792;48.726;9.248;2023-09-12T10:07:57;96567.28;;;27.53;73.19
44131;BME280;29792;48.726;9.248;2023-09-12T10:10:25;96566.91;;;27.61;72.89
44131;BME280;29792;48.726;9.248;2023-09-12T10:12:56;96553.66;;;27.73;73.22
44131;BME280;29792;48.726;9.248;2023-09-12T10:15:22;96556.50;;;27.88;73.38
44131;BME280;29792;48.726;9.248;2023-09-12T10:17:56;96552.69;;;28.00;72.52
44131;BME280;29792;48.726;9.248;2023-09-12T10:20:27;96557.59;;;28.14;69.97
44131;BME280;29792;48.726;9.248;2023-09-12T10:23:06;96554.56;;;28.22;68.17
44131;BME280;29792;48.726;9.248;2023-09-12T10:25:35;96558.63;;;28.29;68.22
44131;BME280;29792;48.726;9.248;2023-09-12T10:28:01;96555.56;;;28.37;68.75
44131;BME280;29792;48.726;9.248;2023-09-12T10:30:27;96561.44;;;28.44;68.45
44131;BME280;29792;48.726;9.248;2023-09-12T10:32:53;96565.72;;;28.51;67.28
44131;BME280;29792;48.726;9.248;2023-09-12T10:35:19;96560.72;;;28.54;66.98
44131;BME280;29792;48.726;9.248;2023-09-12T10:37:45;96561.59;;;28.60;66.41
44131;BME280;29792;48.726;9.248;2023-09-12T10:40:12;96561.16;;;28.68;67.25
44131;BME280;29792;48.726;9.248;2023-09-12T10:42:39;96559.69;;;28.77;67.08
44131;BME280;29792;48.726;9.248;2023-09-12T10:45:05;96561.91;;;28.85;65.76
44131;BME280;29792;48.726;9.248;2023-09-12T10:47:33;96560.91;;;28.96;66.50
44131;BME280;29792;48.726;9.248;2023-09-12T10:49:58;96568.69;;;29.08;65.88
44131;BME280;29792;48.726;9.248;2023-09-12T10:52:25;96562.41;;;29.14;63.79
44131;BME280;29792;48.726;9.248;2023-09-12T10:54:51;96565.63;;;29.21;65.10
44131;BME280;29792;48.726;9.248;2023-09-12T10:57:16;96561.97;;;29.27;63.69
44131;BME280;29792;48.726;9.248;2023-09-12T11:02:32;96559.19;;;29.39;63.50
44131;BME280;29792;48.726;9.248;2023-09-12T11:04:59;96559.50;;;29.42;61.98
44131;BME280;29792;48.726;9.248;2023-09-12T11:12:41;96553.00;;;29.60;60.87
44131;BME280;29792;48.726;9.248;2023-09-12T11:15:08;96558.88;;;29.67;60.05
44131;BME280;29792;48.726;9.248;2023-09-12T11:17:39;96552.81;;;29.72;60.57
44131;BME280;29792;48.726;9.248;2023-09-12T11:20:06;96563.94;;;29.74;58.52
44131;BME280;29792;48.726;9.248;2023-09-12T11:22:39;96559.72;;;29.78;59.36
44131;BME280;29792;48.726;9.248;2023-09-12T11:25:22;96550.75;;;29.84;56.17
44131;BME280;29792;48.726;9.248;2023-09-12T11:30:20;96544.72;;;29.88;56.75
44131;BME280;29792;48.726;9.248;2023-09-12T11:32:51;96545.06;;;29.97;56.66
44131;BME280;29792;48.726;9.248;2023-09-12T11:35:22;96542.72;;;30.06;56.54
44131;BME280;29792;48.726;9.248;2023-09-12T11:37:48;96537.44;;;30.11;57.52
44131;BME280;29792;48.726;9.248;2023-09-12T11:40:15;96536.16;;;30.18;57.77
44131;BME280;29792;48.726;9.248;2023-09-12T11:42:42;96535.91;;;30.25;56.60
44131;BME280;29792;48.726;9.248;2023-09-12T11:45:11;96526.16;;;30.30;55.61
44131;BME280;29792;48.726;9.248;2023-09-12T11:47:40;96525.13;;;30.37;53.92
44131;BME280;29792;48.726;9.248;2023-09-12T11:50:07;96524.06;;;30.43;54.19
44131;BME280;29792;48.726;9.248;2023-09-12T11:52:36;96514.31;;;30.48;53.44
44131;BME280;29792;48.726;9.248;2023-09-12T11:55:02;96515.09;;;30.49;52.90
44131;BME280;29792;48.726;9.248;2023-09-12T11:57:28;96509.06;;;30.53;53.22
44131;BME280;29792;48.726;9.248;2023-09-12T11:59:53;96516.75;;;30.60;53.23
44131;BME280;29792;48.726;9.248;2023-09-12T12:02:19;96520.72;;;30.62;52.49
44131;BME280;29792;48.726;9.248;2023-09-12T12:04:44;96519.38;;;30.65;52.67
44131;BME280;29792;48.726;9.248;2023-09-12T12:07:10;96517.56;;;30.70;52.54
44131;BME280;29792;48.726;9.248;2023-09-12T12:09:36;96511.72;;;30.73;52.16
44131;BME280;29792;48.726;9.248;2023-09-12T12:12:10;96515.44;;;30.78;53.29
44131;BME280;29792;48.726;9.248;2023-09-12T12:14:35;96512.28;;;30.81;52.77
44131;BME280;29792;48.726;9.248;2023-09-12T12:17:11;96513.84;;;30.82;50.17
44131;BME280;29792;48.726;9.248;2023-09-12T12:19:38;96520.72;;;30.83;49.71
44131;BME280;29792;48.726;9.248;2023-09-12T12:22:06;96515.72;;;30.86;49.79
44131;BME280;29792;48.726;9.248;2023-09-12T12:24:44;96501.94;;;30.89;49.20
44131;BME280;29792;48.726;9.248;2023-09-12T12:27:10;96498.78;;;30.92;49.45
44131;BME280;29792;48.726;9.248;2023-09-12T12:29:37;96503.03;;;30.93;49.52
44131;BME280;29792;48.726;9.248;2023-09-12T12:32:05;96490.59;;;30.94;49.65
44131;BME280;29792;48.726;9.248;2023-09-12T12:34:30;96488.72;;;30.94;48.64
44131;BME280;29792;48.726;9.248;2023-09-12T12:36:55;96486.88;;;30.95;48.30
44131;BME280;29792;48.726;9.248;2023-09-12T12:39:21;96482.88;;;30.97;48.56
44131;BME280;29792;48.726;9.248;2023-09-12T12:41:47;96483.44;;;30.99;47.89
44131;BME280;29792;48.726;9.248;2023-09-12T12:44:13;96479.97;;;30.99;46.74
44131;BME280;29792;48.726;9.248;2023-09-12T12:46:54;96477.63;;;31.02;47.07
44131;BME280;29792;48.726;9.248;2023-09-12T12:49:22;96479.22;;;31.03;46.66
44131;BME280;29792;48.726;9.248;2023-09-12T12:51:48;96478.16;;;31.04;46.69
44131;BME280;29792;48.726;9.248;2023-09-12T12:54:14;96474.97;;;31.07;46.35
44131;BME280;29792;48.726;9.248;2023-09-12T12:56:40;96479.22;;;31.14;47.38
44131;BME280;29792;48.726;9.248;2023-09-12T12:59:07;96471.53;;;31.17;47.93
44131;BME280;29792;48.726;9.248;2023-09-12T13:01:38;96471.53;;;31.17;47.33
44131;BME280;29792;48.726;9.248;2023-09-12T13:04:07;96462.00;;;31.21;47.50
44131;BME280;29792;48.726;9.248;2023-09-12T13:06:33;96467.81;;;31.23;47.45
44131;BME280;29792;48.726;9.248;2023-09-12T13:09:02;96466.50;;;31.26;46.92